HAAB/ADD METAR and TAF weather

Enter ICAO airport designator
Station Type Date Time Source
HAAB METAR 2019/10/21 23:00 UTC NOAA

HAAB 212300Z 07002KT 9999 SCT025 13/08 Q1025


Station Type Date Time Source
HAAB Decoded METAR 2019/10/21 23:00 UTC NOAA

Addis Ababa, Ethiopia (HAAB) 08-59N 038-48E 2324M
Oct 21, 2019 - 07:00 PM EDT / 2019.10.21 2300 UTC
Wind: from the ENE (070 degrees) at 2 MPH (2 KT):0
Visibility: greater than 7 mile(s):0
Sky conditions: partly cloudy
Temperature: 55 F (13 C)
Dew Point: 46 F (8 C)
Relative Humidity: 71%
Pressure (altimeter): 30.27 in. Hg (1025 hPa)
ob: HAAB 212300Z 07002KT 9999 SCT025 13/08 Q1025
cycle: 23

Station Type Date Time Source
HAAB TAF 2019/10/21 18:20 UTC NOAA

TAF HAAB 211530Z 2118/2224 10012KT 9999 SCT040 FEW1200
TEMPO 2118/2123 06006KT SCT030

Example: see airport list